sensor_id;sensor_type;location;lat;lon;timestamp;pressure;altitude;pressure_sealevel;temperature;humidity
5138;BME280;53959;53.626;11.410;2023-09-19T00:01:07;-25887.28;;;17.71;100.00
5138;BME280;53959;53.626;11.410;2023-09-19T00:03:34;-25885.78;;;17.67;100.00
5138;BME280;53959;53.626;11.410;2023-09-19T00:06:03;-25885.28;;;17.65;100.00
5138;BME280;53959;53.626;11.410;2023-09-19T00:08:28;-25884.44;;;17.63;100.00
5138;BME280;53959;53.626;11.410;2023-09-19T00:10:54;-25880.97;;;17.52;100.00
5138;BME280;53959;53.626;11.410;2023-09-19T00:13:19;-25879.97;;;17.49;100.00
5138;BME280;53959;53.626;11.410;2023-09-19T00:15:47;-25878.81;;;17.45;100.00
5138;BME280;53959;53.626;11.410;2023-09-19T00:18:17;-25876.31;;;17.38;100.00
5138;BME280;53959;53.626;11.410;2023-09-19T00:20:42;-25874.50;;;17.32;100.00
5138;BME280;53959;53.626;11.410;2023-09-19T00:23:08;-25872.00;;;17.24;100.00
5138;BME280;53959;53.626;11.410;2023-09-19T00:25:34;-25873.00;;;17.28;100.00
5138;BME280;53959;53.626;11.410;2023-09-19T00:28:04;-25871.66;;;17.23;100.00
5138;BME280;53959;53.626;11.410;2023-09-19T00:30:30;-25871.31;;;17.22;100.00
5138;BME280;53959;53.626;11.410;2023-09-19T00:32:56;-25870.50;;;17.20;100.00
5138;BME280;53959;53.626;11.410;2023-09-19T00:35:22;-25867.84;;;17.12;100.00
5138;BME280;53959;53.626;11.410;2023-09-19T00:37:51;-25868.19;;;17.13;100.00
5138;BME280;53959;53.626;11.410;2023-09-19T00:40:17;-25866.69;;;17.08;100.00
5138;BME280;53959;53.626;11.410;2023-09-19T00:42:43;-25868.00;;;17.12;100.00
5138;BME280;53959;53.626;11.410;2023-09-19T00:45:10;-25867.00;;;17.09;100.00
5138;BME280;53959;53.626;11.410;2023-09-19T00:47:44;-25868.66;;;17.14;100.00
5138;BME280;53959;53.626;11.410;2023-09-19T00:50:11;-25867.00;;;17.09;100.00
5138;BME280;53959;53.626;11.410;2023-09-19T00:52:40;-25867.69;;;17.11;100.00
5138;BME280;53959;53.626;11.410;2023-09-19T00:55:11;-25866.69;;;17.08;100.00
5138;BME280;53959;53.626;11.410;2023-09-19T00:57:39;-25864.53;;;17.02;100.00
5138;BME280;53959;53.626;11.410;2023-09-19T01:00:09;-25863.34;;;16.98;100.00
5138;BME280;53959;53.626;11.410;2023-09-19T01:02:41;-25863.03;;;16.97;100.00
5138;BME280;53959;53.626;11.410;2023-09-19T01:05:08;-25861.88;;;16.93;100.00
5138;BME280;53959;53.626;11.410;2023-09-19T01:07:33;-25860.69;;;16.90;100.00
5138;BME280;53959;53.626;11.410;2023-09-19T01:09:59;-25859.69;;;16.87;100.00
5138;BME280;53959;53.626;11.410;2023-09-19T01:15:46;-25861.03;;;16.91;100.00
5138;BME280;53959;53.626;11.410;2023-09-19T01:29:23;-25863.53;;;16.98;100.00
5138;BME280;53959;53.626;11.410;2023-09-19T01:31:57;-25861.34;;;16.92;100.00
5138;BME280;53959;53.626;11.410;2023-09-19T01:34:26;-25863.34;;;16.98;100.00
5138;BME280;53959;53.626;11.410;2023-09-19T01:36:51;-25862.69;;;16.96;100.00
5138;BME280;53959;53.626;11.410;2023-09-19T01:39:17;-25861.69;;;16.93;100.00
5138;BME280;53959;53.626;11.410;2023-09-19T01:41:58;-25861.88;;;16.93;100.00
5138;BME280;53959;53.626;11.410;2023-09-19T01:45:11;-25860.03;;;16.88;100.00
5138;BME280;53959;53.626;11.410;2023-09-19T01:47:55;-25860.38;;;16.89;100.00
5138;BME280;53959;53.626;11.410;2023-09-19T01:50:33;-25860.69;;;16.90;100.00
5138;BME280;53959;53.626;11.410;2023-09-19T01:53:07;-25861.34;;;16.92;100.00
5138;BME280;53959;53.626;11.410;2023-09-19T01:55:43;-25861.19;;;16.91;100.00
5138;BME280;53959;53.626;11.410;2023-09-19T01:58:35;-25860.38;;;16.89;100.00
5138;BME280;53959;53.626;11.410;2023-09-19T02:01:04;-25863.03;;;16.97;100.00
5138;BME280;53959;53.626;11.410;2023-09-19T02:03:34;-25861.19;;;16.91;100.00
5138;BME280;53959;53.626;11.410;2023-09-19T02:06:00;-25860.19;;;16.88;100.00
5138;BME280;53959;53.626;11.410;2023-09-19T02:08:26;-25862.69;;;16.96;100.00
5138;BME280;53959;53.626;11.410;2023-09-19T02:10:52;-25861.03;;;16.91;100.00
5138;BME280;53959;53.626;11.410;2023-09-19T02:13:19;-25859.03;;;16.85;100.00
5138;BME280;53959;53.626;11.410;2023-09-19T02:15:45;-25860.19;;;16.88;100.00
5138;BME280;53959;53.626;11.410;2023-09-19T02:18:14;-25859.88;;;16.87;100.00
5138;BME280;53959;53.626;11.410;2023-09-19T02:20:41;-25856.38;;;16.77;100.00
5138;BME280;53959;53.626;11.410;2023-09-19T02:23:09;-25855.72;;;16.74;100.00
5138;BME280;53959;53.626;11.410;2023-09-19T02:25:35;-25854.88;;;16.72;100.00
5138;BME280;53959;53.626;11.410;2023-09-19T02:28:04;-25852.03;;;16.63;100.00
5138;BME280;53959;53.626;11.410;2023-09-19T02:30:31;-25850.06;;;16.57;100.00
5138;BME280;53959;53.626;11.410;2023-09-19T02:32:56;-25847.72;;;16.50;100.00
5138;BME280;53959;53.626;11.410;2023-09-19T02:35:22;-25845.72;;;16.44;100.00
5138;BME280;53959;53.626;11.410;2023-09-19T02:37:48;-25843.72;;;16.38;100.00
5138;BME280;53959;53.626;11.410;2023-09-19T02:40:14;-25841.72;;;16.32;100.00
5138;BME280;53959;53.626;11.410;2023-09-19T02:42:46;-25844.56;;;16.40;100.00
5138;BME280;53959;53.626;11.410;2023-09-19T02:45:18;-25840.56;;;16.28;100.00
5138;BME280;53959;53.626;11.410;2023-09-19T02:47:45;-25839.56;;;16.25;100.00
5138;BME280;53959;53.626;11.410;2023-09-19T02:50:10;-25837.75;;;16.19;100.00
5138;BME280;53959;53.626;11.410;2023-09-19T02:52:36;-25836.41;;;16.15;100.00
5138;BME280;53959;53.626;11.410;2023-09-19T02:55:02;-25834.59;;;16.10;100.00
5138;BME280;53959;53.626;11.410;2023-09-19T02:57:29;-25833.75;;;16.07;100.00
5138;BME280;53959;53.626;11.410;2023-09-19T02:59:56;-25834.09;;;16.08;100.00
5138;BME280;53959;53.626;11.410;2023-09-19T03:02:21;-25833.25;;;16.06;100.00
5138;BME280;53959;53.626;11.410;2023-09-19T03:04:49;-25829.44;;;15.94;100.00
5138;BME280;53959;53.626;11.410;2023-09-19T03:07:16;-25830.59;;;15.97;100.00
5138;BME280;53959;53.626;11.410;2023-09-19T03:09:42;-25829.25;;;15.93;100.00
5138;BME280;53959;53.626;11.410;2023-09-19T03:12:08;-25826.94;;;15.86;100.00
5138;BME280;53959;53.626;11.410;2023-09-19T03:14:34;-25829.09;;;15.93;100.00
5138;BME280;53959;53.626;11.410;2023-09-19T03:17:01;-25828.75;;;15.92;100.00
5138;BME280;53959;53.626;11.410;2023-09-19T03:19:30;-25832.41;;;16.03;100.00
5138;BME280;53959;53.626;11.410;2023-09-19T03:21:56;-25831.75;;;16.01;100.00
5138;BME280;53959;53.626;11.410;2023-09-19T03:24:23;-25829.75;;;15.95;100.00
5138;BME280;53959;53.626;11.410;2023-09-19T03:26:48;-25828.94;;;15.92;100.00
5138;BME280;53959;53.626;11.410;2023-09-19T03:29:14;-25829.44;;;15.94;100.00
5138;BME280;53959;53.626;11.410;2023-09-19T03:31:41;-25829.75;;;15.95;100.00
5138;BME280;53959;53.626;11.410;2023-09-19T03:34:07;-25828.44;;;15.91;100.00
5138;BME280;53959;53.626;11.410;2023-09-19T03:36:33;-25827.59;;;15.88;100.00
5138;BME280;53959;53.626;11.410;2023-09-19T03:38:58;-25827.75;;;15.89;100.00
5138;BME280;53959;53.626;11.410;2023-09-19T03:41:23;-25828.09;;;15.90;100.00
5138;BME280;53959;53.626;11.410;2023-09-19T03:43:49;-25828.25;;;15.90;100.00
5138;BME280;53959;53.626;11.410;2023-09-19T03:46:14;-25828.44;;;15.91;100.00
5138;BME280;53959;53.626;11.410;2023-09-19T03:48:41;-25825.94;;;15.83;100.00
5138;BME280;53959;53.626;11.410;2023-09-19T03:51:06;-25825.09;;;15.81;100.00
5138;BME280;53959;53.626;11.410;2023-09-19T03:53:32;-25825.44;;;15.82;100.00
5138;BME280;53959;53.626;11.410;2023-09-19T03:55:57;-25826.09;;;15.84;100.00
5138;BME280;53959;53.626;11.410;2023-09-19T03:58:22;-25826.09;;;15.84;100.00
5138;BME280;53959;53.626;11.410;2023-09-19T04:00:48;-25823.78;;;15.76;100.00
5138;BME280;53959;53.626;11.410;2023-09-19T04:03:15;-25823.59;;;15.76;100.00
5138;BME280;53959;53.626;11.410;2023-09-19T04:05:48;-25821.09;;;15.68;100.00
5138;BME280;53959;53.626;11.410;2023-09-19T04:08:14;-25820.44;;;15.66;100.00
5138;BME280;53959;53.626;11.410;2023-09-19T04:10:43;-25820.59;;;15.67;100.00
5138;BME280;53959;53.626;11.410;2023-09-19T04:13:09;-25819.75;;;15.64;100.00
5138;BME280;53959;53.626;11.410;2023-09-19T04:15:34;-25818.09;;;15.59;100.00
5138;BME280;53959;53.626;11.410;2023-09-19T04:17:59;-25817.44;;;15.57;100.00
5138;BME280;53959;53.626;11.410;2023-09-19T04:20:25;-25817.59;;;15.58;100.00
5138;BME280;53959;53.626;11.410;2023-09-19T04:22:51;-25815.78;;;15.52;100.00
5138;BME280;53959;53.626;11.410;2023-09-19T04:25:16;-25815.59;;;15.51;100.00
5138;BME280;53959;53.626;11.410;2023-09-19T04:27:44;-25817.78;;;15.58;100.00
5138;BME280;53959;53.626;11.410;2023-09-19T04:30:09;-25815.59;;;15.51;100.00
5138;BME280;53959;53.626;11.410;2023-09-19T04:32:35;-25814.94;;;15.49;100.00
5138;BME280;53959;53.626;11.410;2023-09-19T04:35:01;-25816.44;;;15.54;100.00
5138;BME280;53959;53.626;11.410;2023-09-19T04:37:31;-25814.59;;;15.48;100.00
5138;BME280;53959;53.626;11.410;2023-09-19T04:39:56;-25814.28;;;15.47;100.00
5138;BME280;53959;53.626;11.410;2023-09-19T04:42:21;-25814.94;;;15.49;100.00
5138;BME280;53959;53.626;11.410;2023-09-19T04:44:47;-25813.44;;;15.45;100.00
5138;BME280;53959;53.626;11.410;2023-09-19T04:47:14;-25815.59;;;15.51;100.00
5138;BME280;53959;53.626;11.410;2023-09-19T04:49:41;-25813.28;;;15.44;100.00
5138;BME280;53959;53.626;11.410;2023-09-19T04:52:06;-25813.44;;;15.45;100.00
5138;BME280;53959;53.626;11.410;2023-09-19T04:54:32;-25812.09;;;15.41;100.00
5138;BME280;53959;53.626;11.410;2023-09-19T04:56:59;-25812.44;;;15.42;100.00
5138;BME280;53959;53.626;11.410;2023-09-19T04:59:25;-25810.78;;;15.37;100.00
5138;BME280;53959;53.626;11.410;2023-09-19T05:01:51;-25810.13;;;15.35;100.00
5138;BME280;53959;53.626;11.410;2023-09-19T05:04:16;-25811.78;;;15.40;100.00
5138;BME280;53959;53.626;11.410;2023-09-19T05:06:41;-25809.94;;;15.34;100.00
5138;BME280;53959;53.626;11.410;2023-09-19T05:09:07;-25809.44;;;15.33;100.00
5138;BME280;53959;53.626;11.410;2023-09-19T05:11:33;-25809.13;;;15.32;100.00
5138;BME280;53959;53.626;11.410;2023-09-19T05:13:59;-25809.28;;;15.32;100.00
5138;BME280;53959;53.626;11.410;2023-09-19T05:16:29;-25809.44;;;15.33;100.00
5138;BME280;53959;53.626;11.410;2023-09-19T05:18:57;-25810.28;;;15.35;100.00
5138;BME280;53959;53.626;11.410;2023-09-19T05:21:23;-25812.44;;;15.42;100.00
5138;BME280;53959;53.626;11.410;2023-09-19T05:23:51;-25813.59;;;15.45;100.00
5138;BME280;53959;53.626;11.410;2023-09-19T05:26:17;-25812.09;;;15.41;100.00
5138;BME280;53959;53.626;11.410;2023-09-19T05:28:43;-25814.09;;;15.47;100.00
5138;BME280;53959;53.626;11.410;2023-09-19T05:31:08;-25812.44;;;15.42;100.00
5138;BME280;53959;53.626;11.410;2023-09-19T05:33:34;-25811.09;;;15.38;100.00
5138;BME280;53959;53.626;11.410;2023-09-19T05:35:59;-25811.78;;;15.40;100.00
5138;BME280;53959;53.626;11.410;2023-09-19T05:38:24;-25811.59;;;15.39;100.00
5138;BME280;53959;53.626;11.410;2023-09-19T05:40:52;-25810.78;;;15.37;100.00
5138;BME280;53959;53.626;11.410;2023-09-19T05:43:18;-25810.78;;;15.37;100.00
5138;BME280;53959;53.626;11.410;2023-09-19T05:45:44;-25808.44;;;15.29;100.00
5138;BME280;53959;53.626;11.410;2023-09-19T05:48:14;-25808.44;;;15.29;100.00
5138;BME280;53959;53.626;11.410;2023-09-19T05:50:41;-25806.78;;;15.24;100.00
5138;BME280;53959;53.626;11.410;2023-09-19T05:53:07;-25806.28;;;15.23;100.00
5138;BME280;53959;53.626;11.410;2023-09-19T05:55:32;-25803.94;;;15.16;100.00
5138;BME280;53959;53.626;11.410;2023-09-19T05:57:58;-25799.63;;;15.02;100.00
5138;BME280;53959;53.626;11.410;2023-09-19T06:00:24;-25798.63;;;14.99;100.00
5138;BME280;53959;53.626;11.410;2023-09-19T06:02:55;-25798.44;;;14.99;100.00
5138;BME280;53959;53.626;11.410;2023-09-19T06:05:23;-25795.78;;;14.91;100.00
5138;BME280;53959;53.626;11.410;2023-09-19T06:07:48;-25796.44;;;14.93;100.00
5138;BME280;53959;53.626;11.410;2023-09-19T06:10:13;-25794.78;;;14.88;100.00
5138;BME280;53959;53.626;11.410;2023-09-19T06:12:43;-25792.44;;;14.80;100.00
5138;BME280;53959;53.626;11.410;2023-09-19T06:15:13;-25792.44;;;14.80;100.00
5138;BME280;53959;53.626;11.410;2023-09-19T06:17:55;-25792.78;;;14.81;100.00
5138;BME280;53959;53.626;11.410;2023-09-19T06:20:22;-25793.78;;;14.85;100.00
5138;BME280;53959;53.626;11.410;2023-09-19T06:22:48;-25793.94;;;14.85;100.00
5138;BME280;53959;53.626;11.410;2023-09-19T06:25:15;-25794.94;;;14.88;100.00
5138;BME280;53959;53.626;11.410;2023-09-19T06:27:53;-25796.63;;;14.93;100.00
5138;BME280;53959;53.626;11.410;2023-09-19T06:30:20;-25798.13;;;14.98;100.00
5138;BME280;53959;53.626;11.410;2023-09-19T06:32:46;-25797.78;;;14.97;100.00
5138;BME280;53959;53.626;11.410;2023-09-19T06:35:13;-25801.44;;;15.08;100.00
5138;BME280;53959;53.626;11.410;2023-09-19T06:37:39;-25803.13;;;15.13;100.00
5138;BME280;53959;53.626;11.410;2023-09-19T06:40:10;-25802.13;;;15.10;100.00
5138;BME280;53959;53.626;11.410;2023-09-19T06:42:43;-25804.28;;;15.17;100.00
5138;BME280;53959;53.626;11.410;2023-09-19T06:45:13;-25804.28;;;15.17;100.00
5138;BME280;53959;53.626;11.410;2023-09-19T06:47:43;-25805.94;;;15.22;100.00
5138;BME280;53959;53.626;11.410;2023-09-19T06:50:09;-25809.44;;;15.33;100.00
5138;BME280;53959;53.626;11.410;2023-09-19T06:52:40;-25809.94;;;15.34;100.00
5138;BME280;53959;53.626;11.410;2023-09-19T06:55:05;-25810.94;;;15.37;100.00
5138;BME280;53959;53.626;11.410;2023-09-19T06:57:31;-25813.44;;;15.45;100.00
5138;BME280;53959;53.626;11.410;2023-09-19T06:59:57;-25816.94;;;15.55;100.00
5138;BME280;53959;53.626;11.410;2023-09-19T07:02:22;-25817.44;;;15.57;100.00
5138;BME280;53959;53.626;11.410;2023-09-19T07:04:48;-25819.94;;;15.65;100.00
5138;BME280;53959;53.626;11.410;2023-09-19T07:07:15;-25822.09;;;15.71;100.00
5138;BME280;53959;53.626;11.410;2023-09-19T07:09:40;-25823.25;;;15.75;100.00
5138;BME280;53959;53.626;11.410;2023-09-19T07:12:07;-25827.44;;;15.88;100.00
5138;BME280;53959;53.626;11.410;2023-09-19T07:14:32;-25831.09;;;15.99;100.00
5138;BME280;53959;53.626;11.410;2023-09-19T07:16:58;-25833.25;;;16.06;100.00
5138;BME280;53959;53.626;11.410;2023-09-19T07:19:25;-25834.09;;;16.08;100.00
5138;BME280;53959;53.626;11.410;2023-09-19T07:21:53;-25839.41;;;16.24;100.00
5138;BME280;53959;53.626;11.410;2023-09-19T07:24:18;-25836.91;;;16.17;100.00
5138;BME280;53959;53.626;11.410;2023-09-19T07:26:45;-25833.59;;;16.07;100.00
5138;BME280;53959;53.626;11.410;2023-09-19T07:29:10;-25837.09;;;16.17;100.00
5138;BME280;53959;53.626;11.410;2023-09-19T07:31:36;-25839.25;;;16.24;100.00
5138;BME280;53959;53.626;11.410;2023-09-19T07:34:01;-25834.25;;;16.09;100.00
5138;BME280;53959;53.626;11.410;2023-09-19T07:36:29;-25836.41;;;16.15;100.00
5138;BME280;53959;53.626;11.410;2023-09-19T07:38:54;-25844.56;;;16.40;100.00
5138;BME280;53959;53.626;11.410;2023-09-19T07:41:20;-25840.56;;;16.28;100.00
5138;BME280;53959;53.626;11.410;2023-09-19T07:43:46;-25848.22;;;16.51;100.00
5138;BME280;53959;53.626;11.410;2023-09-19T07:46:11;-25857.03;;;16.79;100.00
5138;BME280;53959;53.626;11.410;2023-09-19T07:48:36;-25855.03;;;16.72;100.00
5138;BME280;53959;53.626;11.410;2023-09-19T07:51:07;-25849.72;;;16.56;100.00
5138;BME280;53959;53.626;11.410;2023-09-19T07:53:33;-25846.06;;;16.45;100.00
5138;BME280;53959;53.626;11.410;2023-09-19T07:56:05;-25848.38;;;16.52;100.00
5138;BME280;53959;53.626;11.410;2023-09-19T07:58:31;-25849.56;;;16.56;100.00
5138;BME280;53959;53.626;11.410;2023-09-19T08:00:56;-25860.69;;;16.90;100.00
5138;BME280;53959;53.626;11.410;2023-09-19T08:03:21;-25857.22;;;16.79;100.00
5138;BME280;53959;53.626;11.410;2023-09-19T08:05:47;-25862.69;;;16.96;100.00
5138;BME280;53959;53.626;11.410;2023-09-19T08:08:13;-25864.53;;;17.02;100.00
5138;BME280;53959;53.626;11.410;2023-09-19T08:10:39;-25856.03;;;16.75;100.00
5138;BME280;53959;53.626;11.410;2023-09-19T08:13:07;-25856.88;;;16.78;100.00
5138;BME280;53959;53.626;11.410;2023-09-19T08:15:36;-25865.34;;;17.04;100.00
5138;BME280;53959;53.626;11.410;2023-09-19T08:18:01;-25853.03;;;16.66;100.00
5138;BME280;53959;53.626;11.410;2023-09-19T08:20:26;-25855.19;;;16.73;100.00
5138;BME280;53959;53.626;11.410;2023-09-19T08:22:52;-25858.03;;;16.82;100.00
5138;BME280;53959;53.626;11.410;2023-09-19T08:25:19;-25857.03;;;16.79;100.00
5138;BME280;53959;53.626;11.410;2023-09-19T08:27:45;-25863.19;;;16.97;100.00
5138;BME280;53959;53.626;11.410;2023-09-19T08:30:21;-25861.03;;;16.91;100.00
5138;BME280;53959;53.626;11.410;2023-09-19T08:32:56;-25864.34;;;17.01;100.00
5138;BME280;53959;53.626;11.410;2023-09-19T08:35:23;-25865.69;;;17.05;100.00
5138;BME280;53959;53.626;11.410;2023-09-19T08:37:48;-25866.19;;;17.07;100.00
5138;BME280;53959;53.626;11.410;2023-09-19T08:40:14;-25863.69;;;16.99;100.00
5138;BME280;53959;53.626;11.410;2023-09-19T08:42:52;-25862.84;;;16.96;100.00
5138;BME280;53959;53.626;11.410;2023-09-19T08:45:19;-25857.38;;;16.80;100.00
5138;BME280;53959;53.626;11.410;2023-09-19T08:47:54;-25862.69;;;16.96;100.00
5138;BME280;53959;53.626;11.410;2023-09-19T08:50:26;-25859.53;;;16.86;100.00
5138;BME280;53959;53.626;11.410;2023-09-19T08:52:53;-25861.03;;;16.91;100.00
5138;BME280;53959;53.626;11.410;2023-09-19T08:55:20;-25861.19;;;16.91;100.00
5138;BME280;53959;53.626;11.410;2023-09-19T08:57:51;-25863.69;;;16.99;100.00
5138;BME280;53959;53.626;11.410;2023-09-19T09:00:18;-25870.66;;;17.20;100.00
5138;BME280;53959;53.626;11.410;2023-09-19T09:02:46;-25871.66;;;17.23;100.00
5138;BME280;53959;53.626;11.410;2023-09-19T09:05:12;-25868.50;;;17.14;100.00
5138;BME280;53959;53.626;11.410;2023-09-19T09:07:40;-25871.50;;;17.23;100.00
5138;BME280;53959;53.626;11.410;2023-09-19T09:10:06;-25880.63;;;17.51;100.00
5138;BME280;53959;53.626;11.410;2023-09-19T09:12:32;-25873.66;;;17.30;100.00
5138;BME280;53959;53.626;11.410;2023-09-19T09:14:58;-25866.34;;;17.07;100.00
5138;BME280;53959;53.626;11.410;2023-09-19T09:17:26;-25870.00;;;17.18;100.00
5138;BME280;53959;53.626;11.410;2023-09-19T09:19:52;-25873.31;;;17.29;100.00
5138;BME280;53959;53.626;11.410;2023-09-19T09:22:18;-25869.00;;;17.15;100.00
5138;BME280;53959;53.626;11.410;2023-09-19T09:24:57;-25864.34;;;17.01;100.00
5138;BME280;53959;53.626;11.410;2023-09-19T09:27:29;-25865.00;;;17.03;100.00
5138;BME280;53959;53.626;11.410;2023-09-19T09:29:56;-25869.34;;;17.16;100.00
5138;BME280;53959;53.626;11.410;2023-09-19T09:32:22;-25875.97;;;17.37;100.00
5138;BME280;53959;53.626;11.410;2023-09-19T09:34:52;-25874.97;;;17.34;100.00
5138;BME280;53959;53.626;11.410;2023-09-19T09:37:19;-25865.34;;;17.04;100.00
5138;BME280;53959;53.626;11.410;2023-09-19T09:39:53;-25876.16;;;17.37;100.00
5138;BME280;53959;53.626;11.410;2023-09-19T09:42:35;-25863.03;;;16.97;100.00
5138;BME280;53959;53.626;11.410;2023-09-19T09:47:53;-25874.97;;;17.34;100.00
5138;BME280;53959;53.626;11.410;2023-09-19T09:50:46;-25872.31;;;17.26;100.00
5138;BME280;53959;53.626;11.410;2023-09-19T09:53:26;-25875.66;;;17.36;100.00
5138;BME280;53959;53.626;11.410;2023-09-19T09:56:00;-25882.97;;;17.58;100.00
5138;BME280;53959;53.626;11.410;2023-09-19T09:58:26;-25873.81;;;17.30;100.00
5138;BME280;53959;53.626;11.410;2023-09-19T10:00:55;-25878.31;;;17.44;100.00
5138;BME280;53959;53.626;11.410;2023-09-19T10:03:34;-25878.16;;;17.43;100.00
5138;BME280;53959;53.626;11.410;2023-09-19T10:06:04;-25881.31;;;17.53;100.00
5138;BME280;53959;53.626;11.410;2023-09-19T10:09:01;-25882.47;;;17.57;100.00
5138;BME280;53959;53.626;11.410;2023-09-19T10:12:06;-25873.31;;;17.29;100.00
5138;BME280;53959;53.626;11.410;2023-09-19T10:14:35;-25878.63;;;17.45;100.00
5138;BME280;53959;53.626;11.410;2023-09-19T10:17:05;-25884.94;;;17.64;100.00
5138;BME280;53959;53.626;11.410;2023-09-19T10:19:37;-25877.16;;;17.40;100.00
5138;BME280;53959;53.626;11.410;2023-09-19T10:22:04;-25875.66;;;17.36;100.00
5138;BME280;53959;53.626;11.410;2023-09-19T10:24:33;-25884.63;;;17.63;100.00
5138;BME280;53959;53.626;11.410;2023-09-19T10:27:01;-25881.97;;;17.55;100.00
5138;BME280;53959;53.626;11.410;2023-09-19T10:29:28;-25879.63;;;17.48;100.00
5138;BME280;53959;53.626;11.410;2023-09-19T10:31:58;-25891.75;;;17.85;100.00
5138;BME280;53959;53.626;11.410;2023-09-19T10:34:25;-25880.63;;;17.51;100.00
5138;BME280;53959;53.626;11.410;2023-09-19T10:36:52;-25882.13;;;17.56;100.00
5138;BME280;53959;53.626;11.410;2023-09-19T10:39:18;-25896.91;;;18.01;100.00
5138;BME280;53959;53.626;11.410;2023-09-19T10:41:49;-25902.38;;;18.18;100.00
5138;BME280;53959;53.626;11.410;2023-09-19T10:44:21;-25905.22;;;18.27;100.00
5138;BME280;53959;53.626;11.410;2023-09-19T10:46:47;-25904.88;;;18.26;100.00
5138;BME280;53959;53.626;11.410;2023-09-19T10:49:13;-25905.22;;;18.27;100.00
5138;BME280;53959;53.626;11.410;2023-09-19T10:51:42;-25912.34;;;18.49;100.00
5138;BME280;53959;53.626;11.410;2023-09-19T10:54:15;-25908.03;;;18.35;100.00
5138;BME280;53959;53.626;11.410;2023-09-19T10:56:43;-25894.59;;;17.94;100.00
5138;BME280;53959;53.626;11.410;2023-09-19T10:59:14;-25888.78;;;17.76;100.00
5138;BME280;53959;53.626;11.410;2023-09-19T11:01:47;-25895.09;;;17.95;100.00
5138;BME280;53959;53.626;11.410;2023-09-19T11:04:32;-25894.25;;;17.93;100.00
5138;BME280;53959;53.626;11.410;2023-09-19T11:07:03;-25902.06;;;18.17;100.00
5138;BME280;53959;53.626;11.410;2023-09-19T11:09:51;-25905.88;;;18.29;100.00
5138;BME280;53959;53.626;11.410;2023-09-19T11:15:02;-25898.22;;;18.05;100.00
5138;BME280;53959;53.626;11.410;2023-09-19T11:17:34;-25902.88;;;18.19;100.00
5138;BME280;53959;53.626;11.410;2023-09-19T11:30:34;-25898.91;;;18.07;100.00
5138;BME280;53959;53.626;11.410;2023-09-19T11:33:16;-25894.91;;;17.95;100.00
5138;BME280;53959;53.626;11.410;2023-09-19T11:36:12;-25892.59;;;17.88;100.00
5138;BME280;53959;53.626;11.410;2023-09-19T11:43:51;-25896.25;;;17.99;100.00
5138;BME280;53959;53.626;11.410;2023-09-19T11:46:18;-25904.88;;;18.26;100.00
5138;BME280;53959;53.626;11.410;2023-09-19T11:48:50;-25913.16;;;18.51;100.00
5138;BME280;53959;53.626;11.410;2023-09-19T11:51:24;-25905.53;;;18.28;100.00
5138;BME280;53959;53.626;11.410;2023-09-19T11:53:57;-25909.84;;;18.41;100.00
5138;BME280;53959;53.626;11.410;2023-09-19T11:56:26;-25911.19;;;18.45;100.00
5138;BME280;53959;53.626;11.410;2023-09-19T11:58:57;-25905.53;;;18.28;100.00
5138;BME280;53959;53.626;11.410;2023-09-19T12:01:33;-25902.72;;;18.19;100.00
5138;BME280;53959;53.626;11.410;2023-09-19T12:04:01;-25905.38;;;18.27;100.00
5138;BME280;53959;53.626;11.410;2023-09-19T12:06:28;-25909.19;;;18.39;100.00
5138;BME280;53959;53.626;11.410;2023-09-19T12:08:55;-25914.00;;;18.54;100.00
5138;BME280;53959;53.626;11.410;2023-09-19T12:11:22;-25910.53;;;18.43;100.00
5138;BME280;53959;53.626;11.410;2023-09-19T12:13:48;-25904.88;;;18.26;100.00
5138;BME280;53959;53.626;11.410;2023-09-19T12:16:19;-25905.38;;;18.27;100.00
5138;BME280;53959;53.626;11.410;2023-09-19T12:18:48;-25909.53;;;18.40;100.00
5138;BME280;53959;53.626;11.410;2023-09-19T12:21:52;-25908.69;;;18.37;100.00
5138;BME280;53959;53.626;11.410;2023-09-19T12:24:13;-25910.03;;;18.41;100.00
5138;BME280;53959;53.626;11.410;2023-09-19T12:26:42;-25909.03;;;18.38;100.00
5138;BME280;53959;53.626;11.410;2023-09-19T12:29:12;-25912.84;;;18.50;100.00
5138;BME280;53959;53.626;11.410;2023-09-19T12:31:46;-25924.44;;;18.86;100.00
5138;BME280;53959;53.626;11.410;2023-09-19T12:34:16;-25921.31;;;18.76;100.00
5138;BME280;53959;53.626;11.410;2023-09-19T12:36:41;-25921.47;;;18.77;100.00
5138;BME280;53959;53.626;11.410;2023-09-19T12:39:06;-25929.09;;;19.00;100.00
5138;BME280;53959;53.626;11.410;2023-09-19T12:41:34;-25914.34;;;18.55;100.00
5138;BME280;53959;53.626;11.410;2023-09-19T12:44:01;-25915.50;;;18.58;100.00
5138;BME280;53959;53.626;11.410;2023-09-19T12:46:34;-25925.44;;;18.89;100.00
5138;BME280;53959;53.626;11.410;2023-09-19T12:49:18;-25917.00;;;18.63;100.00
5138;BME280;53959;53.626;11.410;2023-09-19T12:51:46;-25917.00;;;18.63;100.00
5138;BME280;53959;53.626;11.410;2023-09-19T12:54:12;-25921.13;;;18.76;100.00
5138;BME280;53959;53.626;11.410;2023-09-19T12:56:40;-25928.44;;;18.98;100.00
5138;BME280;53959;53.626;11.410;2023-09-19T12:59:11;-25924.63;;;18.86;100.00
5138;BME280;53959;53.626;11.410;2023-09-19T13:01:39;-25926.28;;;18.91;100.00
5138;BME280;53959;53.626;11.410;2023-09-19T13:06:38;-25926.63;;;18.92;99.22
5138;BME280;53959;53.626;11.410;2023-09-19T13:09:09;-25920.97;;;18.75;100.00
5138;BME280;53959;53.626;11.410;2023-09-19T13:11:38;-25932.91;;;19.12;100.00
5138;BME280;53959;53.626;11.410;2023-09-19T13:14:25;-25932.75;;;19.11;100.00
5138;BME280;53959;53.626;11.410;2023-09-19T13:17:04;-25919.31;;;18.70;100.00
5138;BME280;53959;53.626;11.410;2023-09-19T13:19:45;-25927.59;;;18.96;100.00
5138;BME280;53959;53.626;11.410;2023-09-19T13:22:37;-25927.09;;;18.94;100.00
5138;BME280;53959;53.626;11.410;2023-09-19T13:25:10;-25926.78;;;18.93;100.00
5138;BME280;53959;53.626;11.410;2023-09-19T13:30:13;-25927.78;;;18.96;100.00